Terminal Aerodrome Forecast
Issued by NWS Bismarck, ND

Home | Current Version | Previous Version | Graphics & Text | Print | Product List | Glossary On
Versions: 1 2 3 4 5 6 7 8 9 10 11 12 13 14 15 16 17 18 19 20 21 22
142
FTUS43 KBIS 182321
TAFBIS
TAF
KBIS 182321Z 1900/1924 28007KT P6SM SCT250
     FM190100 27004KT P6SM SCT250
     FM191800 22008KT P6SM SCT250=

USA.gov is the U.S. government's official web portal to all federal, state and local government web resources and services.